< < Back
Terminal Aerodrome Forecast


Current Version              Previous Versions:   1  2  3  4  5  6  7  8  9  

Terminal Aerodrome Forecast

546
FTUS42 KFFC 032342
TAFCSG
TAF
KCSG 032342Z 0400/0424 35003KT P6SM BKN100
     FM041400 32004KT P6SM SCT040 SCT250
     FM041700 31005KT P6SM SCT050 BKN250=

Latest METAR

001
SAUS70 KWBC 041400
MTRCSG
METAR KCSG 041351Z 33003KT 10SM CLR 27/19 A3001 RMK AO2 SLP155
T02670194


USA.gov is the U.S. government's official web portal to all federal, state and local government web resources and services.